MST,Max TemperatureF,Mean TemperatureF,Min TemperatureF,Max Dew PointF,MeanDew PointF,Min DewpointF,Max Humidity, Mean Humidity, Min Humidity, Max Sea Level PressureIn, Mean Sea Level PressureIn, Min Sea Level PressureIn, Max VisibilityMiles, Mean VisibilityMiles, Min VisibilityMiles, Max Wind SpeedMPH, Mean Wind SpeedMPH, Max Gust SpeedMPH,PrecipitationIn, CloudCover, Events, WindDirDegrees
2013-1-1,16,-3,-23,9,-4,-27,91,78,64,30.58,30.18,29.92,10,5,0,9,3,10,0.01,6,Fog-Snow,307
2013-1-2,12,-9,-30,-2,-21,-33,92,75,57,30.78,30.44,30.16,10,6,0,10,3,10,0.00,4,,331
2013-1-3,9,-12,-33,-4,-24,-36,84,71,57,30.98,30.63,30.24,10,7,0,9,2,10,0.00,5,Fog,287
2013-1-4,13,-10,-34,-3,-19,-34,100,76,52,30.97,30.63,30.24,10,9,2,8,2,22,0.00,3,,262
2013-1-5,15,-8,-32,-2,-19,-36,90,71,51,31.00,30.74,30.22,10,10,5,9,2,10,0.00,1,,290
2013-1-6,18,-6,-31,-1,-16,-36,100,74,47,31.00,30.73,30.37,10,10,7,8,2,8,0.00,1,,294
2013-1-7,22,2,-18,4,-9,-24,83,64,45,30.57,30.42,30.02,10,9,7,10,2,13,0.00,1,,292
2013-1-8,23,1,-22,6,-13,-26,95,74,52,30.74,30.32,30.02,10,6,0,10,3,14,0.00,4,Fog,320
2013-1-9,25,4,-18,7,-10,-22,91,69,46,30.90,30.63,30.22,10,8,0,9,4,13,0.00,1,Fog,272
2013-1-10,24,2,-21,9,-8,-24,91,72,52,30.55,30.07,29.67,10,6,0,10,6,14,T,3,Fog,267
2013-1-11,30,10,-10,25,6,-14,81,61,41,30.06,29.72,29.45,10,9,1,33,17,44,T,4,Snow,220
2013-1-12,8,-12,-32,-8,-18,-31,89,70,51,30.37,30.20,29.83,10,10,10,25,4,26,0.00,1,,260
2013-1-13,9,-12,-34,-5,-19,-34,87,71,55,30.52,30.37,29.83,10,10,10,9,2,10,T,2,,287
2013-1-14,12,-4,-21,-1,-14,-26,83,71,58,30.44,30.22,29.84,10,9,1,10,3,12,T,3,Snow,297
2013-1-15,14,-9,-32,-7,-19,-35,100,71,42,30.81,30.50,29.99,10,10,8,8,2,13,T,2,,264
2013-1-16,23,2,-19,5,-9,-23,91,68,45,30.84,30.73,30.29,10,10,8,9,2,10,0.00,0,,294
2013-1-17,23,5,-14,11,-5,-18,91,74,56,30.97,30.82,30.72,10,10,8,7,2,8,0.00,0,,281
2013-1-18,25,6,-14,11,-7,-19,92,74,55,30.84,30.60,30.31,10,6,0,7,2,8,0.00,3,Fog,334
2013-1-19,29,9,-11,11,-5,-17,86,66,46,30.84,30.63,30.33,10,5,0,9,3,15,0.00,3,,276
2013-1-20,29,6,-18,9,-10,-24,87,67,46,30.85,30.55,30.33,10,6,0,8,2,10,0.00,3,Fog,357
2013-1-21,30,7,-17,10,-6,-22,87,65,42,30.80,30.55,30.28,10,8,0,15,4,28,0.00,2,Fog,269
2013-1-22,32,8,-16,12,-4,-21,91,69,46,30.79,30.68,30.59,10,10,6,8,3,9,0.00,0,,269
2013-1-23,29,4,-21,7,-6,-25,95,65,35,30.96,30.76,30.62,10,10,8,12,2,26,0.00,0,,338
2013-1-24,40,16,-9,16,3,-14,91,60,29,30.74,30.55,30.37,10,9,6,10,2,13,0.00,0,,301
2013-1-25,41,22,3,27,14,1,100,80,59,30.51,30.37,30.23,10,9,2,12,3,18,0.00,1,,294
2013-1-26,34,21,8,32,21,5,100,89,78,30.35,30.11,29.86,10,4,0,16,3,26,0.06,8,Fog-Rain-Snow,324
2013-1-27,46,29,11,31,22,11,100,78,56,30.02,29.90,29.79,10,6,0,25,5,30,0.06,5,Fog,251
2013-1-28,39,30,20,30,24,14,89,72,54,29.82,29.71,29.61,10,10,5,31,17,39,T,2,Snow,207
2013-1-29,25,18,10,15,6,-2,88,62,35,30.00,29.74,29.60,10,10,10,25,14,31,T,4,,318
2013-1-30,31,12,-7,10,1,-11,84,59,34,30.27,30.18,30.01,10,10,10,15,3,18,0.00,0,,162
2013-1-31,40,21,2,17,9,-1,91,59,27,30.42,30.31,30.19,10,10,10,13,4,14,0.00,0,,159